createdAt,value
2019-03-22T00:00:31.871Z,9.40
2019-03-22T00:03:01.521Z,8.85
2019-03-22T00:05:28.859Z,9.68
2019-03-22T00:08:02.481Z,11.12
2019-03-22T00:10:30.905Z,11.57
2019-03-22T00:12:59.612Z,10.90
2019-03-22T00:15:30.269Z,12.88
2019-03-22T00:17:58.011Z,12.15
2019-03-22T00:20:25.725Z,10.15
2019-03-22T00:23:00.570Z,10.45
2019-03-22T00:25:27.628Z,12.78
2019-03-22T00:27:54.835Z,8.38
2019-03-22T00:30:24.518Z,8.73
2019-03-22T00:32:53.949Z,9.75
2019-03-22T00:35:25.273Z,9.55
2019-03-22T00:37:52.385Z,10.40
2019-03-22T00:40:19.273Z,8.70
2019-03-22T00:42:50.125Z,9.98
2019-03-22T00:45:19.744Z,9.40
2019-03-22T00:47:47.232Z,10.28
2019-03-22T00:50:16.799Z,11.90
2019-03-22T00:52:44.320Z,9.73
2019-03-22T00:55:14.322Z,8.38
2019-03-22T00:57:42.445Z,10.45
2019-03-22T01:00:13.860Z,8.20
2019-03-22T01:02:41.105Z,9.38
2019-03-22T01:05:11.666Z,9.65
2019-03-22T01:07:41.857Z,8.75
2019-03-22T01:10:13.782Z,12.03
2019-03-22T01:12:45.406Z,11.12
2019-03-22T01:15:18.811Z,9.18
2019-03-22T01:17:47.239Z,10.35
2019-03-22T01:20:14.402Z,11.95
2019-03-22T01:22:42.096Z,13.28
2019-03-22T01:25:10.052Z,10.50
2019-03-22T01:27:41.295Z,12.40
2019-03-22T01:30:15.488Z,13.05
2019-03-22T01:32:42.535Z,8.75
2019-03-22T01:35:10.741Z,12.35
2019-03-22T01:37:37.698Z,8.95
2019-03-22T01:40:13.421Z,10.63
2019-03-22T01:42:40.641Z,10.78
2019-03-22T01:45:11.177Z,9.98
2019-03-22T01:47:38.707Z,12.70
2019-03-22T01:50:13.587Z,11.08
2019-03-22T01:52:40.686Z,12.40
2019-03-22T01:55:08.871Z,12.30
2019-03-22T01:57:36.471Z,10.80
2019-03-22T02:00:08.205Z,12.00
2019-03-22T02:02:35.443Z,9.98
2019-03-22T02:05:07.036Z,10.75
2019-03-22T02:07:34.360Z,9.58
2019-03-22T02:10:07.904Z,10.65
2019-03-22T02:12:35.173Z,11.60
2019-03-22T02:15:05.531Z,9.18
2019-03-22T02:17:32.832Z,9.23
2019-03-22T02:20:00.258Z,10.98
2019-03-22T02:22:27.348Z,11.28
2019-03-22T02:24:54.535Z,13.60
2019-03-22T02:27:21.474Z,10.93
2019-03-22T02:29:49.815Z,13.05
2019-03-22T02:32:17.278Z,10.60
2019-03-22T02:34:44.438Z,14.33
2019-03-22T02:37:11.581Z,12.37
2019-03-22T02:39:38.643Z,10.23
2019-03-22T02:42:06.320Z,12.00
2019-03-22T02:44:33.424Z,13.13
2019-03-22T02:47:02.083Z,11.95
2019-03-22T02:49:29.342Z,9.43
2019-03-22T02:51:56.463Z,10.58
2019-03-22T02:54:25.994Z,11.10
2019-03-22T02:56:52.945Z,10.82
2019-03-22T02:59:19.938Z,10.80
2019-03-22T03:01:46.967Z,9.08
2019-03-22T03:04:14.069Z,10.68
2019-03-22T03:06:41.158Z,9.70
2019-03-22T03:09:08.147Z,10.85
2019-03-22T03:11:35.031Z,8.85
2019-03-22T03:14:02.298Z,11.18
2019-03-22T03:16:30.380Z,10.93
2019-03-22T03:18:57.330Z,10.88
2019-03-22T03:21:24.625Z,8.83
2019-03-22T03:23:52.110Z,12.15
2019-03-22T03:26:19.331Z,10.20
2019-03-22T03:28:46.701Z,10.18
2019-03-22T03:31:13.902Z,11.40
2019-03-22T03:33:41.437Z,13.98
2019-03-22T03:36:08.667Z,9.65
2019-03-22T03:38:36.428Z,10.15
2019-03-22T03:41:03.702Z,10.30
2019-03-22T03:43:31.272Z,9.10
2019-03-22T03:45:58.214Z,10.70
2019-03-22T03:48:25.164Z,10.85
2019-03-22T03:50:52.395Z,11.80
2019-03-22T03:53:19.912Z,11.30
2019-03-22T03:55:46.876Z,13.65
2019-03-22T03:58:13.905Z,10.30
2019-03-22T04:00:41.486Z,11.60
2019-03-22T04:03:08.431Z,11.15
2019-03-22T04:05:35.550Z,10.03
2019-03-22T04:08:03.140Z,11.22
2019-03-22T04:10:30.551Z,10.68
2019-03-22T04:12:57.740Z,10.38
2019-03-22T04:15:24.653Z,14.10
2019-03-22T04:17:51.605Z,12.80
2019-03-22T04:20:18.614Z,10.68
2019-03-22T04:22:46.119Z,10.30
2019-03-22T04:25:13.539Z,14.05
2019-03-22T04:27:40.582Z,13.38
2019-03-22T04:30:07.680Z,10.43
2019-03-22T04:32:34.538Z,12.35
2019-03-22T04:35:03.227Z,10.72
2019-03-22T04:37:30.270Z,12.80
2019-03-22T04:39:57.178Z,13.32
2019-03-22T04:42:24.290Z,11.60
2019-03-22T04:44:51.670Z,13.13
2019-03-22T04:47:20.972Z,13.13
2019-03-22T04:49:50.969Z,12.70
2019-03-22T04:52:23.629Z,11.75
2019-03-22T04:54:55.947Z,11.05
2019-03-22T04:57:26.090Z,11.53
2019-03-22T05:00:01.938Z,10.82
2019-03-22T05:02:32.431Z,11.80
2019-03-22T05:05:00.458Z,10.78
2019-03-22T05:07:28.992Z,11.25
2019-03-22T05:09:57.627Z,11.48
2019-03-22T05:12:27.780Z,10.72
2019-03-22T05:14:56.484Z,11.70
2019-03-22T05:17:25.259Z,12.28
2019-03-22T05:19:57.669Z,16.30
2019-03-22T05:22:29.488Z,15.83
2019-03-22T05:25:02.272Z,11.30
2019-03-22T05:27:35.222Z,11.43
2019-03-22T05:30:06.646Z,13.90
2019-03-22T05:32:34.223Z,13.43
2019-03-22T05:35:01.259Z,12.35
2019-03-22T05:37:28.439Z,11.12
2019-03-22T05:39:56.104Z,11.00
2019-03-22T05:42:23.265Z,12.88
2019-03-22T05:44:50.927Z,11.20
2019-03-22T05:47:20.406Z,13.45
2019-03-22T05:49:49.648Z,11.73
2019-03-22T05:52:16.663Z,11.00
2019-03-22T05:54:44.351Z,13.93
2019-03-22T05:57:14.193Z,11.22
2019-03-22T05:59:43.255Z,10.23
2019-03-22T06:02:13.912Z,12.47
2019-03-22T06:04:41.271Z,13.08
2019-03-22T06:07:08.794Z,12.20
2019-03-22T06:09:38.764Z,13.18
2019-03-22T06:12:16.606Z,13.28
2019-03-22T06:14:44.269Z,12.63
2019-03-22T06:17:11.665Z,11.70
2019-03-22T06:19:38.779Z,13.98
2019-03-22T06:22:07.909Z,10.63
2019-03-22T06:24:35.115Z,13.18
2019-03-22T06:27:02.385Z,13.10
2019-03-22T06:29:29.673Z,16.32
2019-03-22T06:31:57.193Z,14.45
2019-03-22T06:34:24.516Z,16.90
2019-03-22T06:36:51.768Z,14.93
2019-03-22T06:39:21.188Z,10.80
2019-03-22T06:41:48.627Z,13.88
2019-03-22T06:44:15.778Z,14.25
2019-03-22T06:46:42.791Z,12.10
2019-03-22T06:49:09.632Z,13.75
2019-03-22T06:51:37.319Z,12.30
2019-03-22T06:54:04.792Z,13.43
2019-03-22T06:56:31.808Z,10.95
2019-03-22T06:58:58.927Z,11.93
2019-03-22T07:01:26.074Z,10.50
2019-03-22T07:03:52.955Z,11.68
2019-03-22T07:06:19.910Z,12.85
2019-03-22T07:08:46.770Z,10.93
2019-03-22T07:11:16.762Z,13.70
2019-03-22T07:13:44.067Z,11.33
2019-03-22T07:16:11.280Z,12.33
2019-03-22T07:18:38.277Z,11.22
2019-03-22T07:21:05.735Z,11.10
2019-03-22T07:23:33.566Z,17.32
2019-03-22T07:26:01.637Z,11.15
2019-03-22T07:28:31.085Z,10.65
2019-03-22T07:30:58.222Z,11.60
2019-03-22T07:33:27.085Z,9.73
2019-03-22T07:35:54.928Z,12.53
2019-03-22T07:38:22.344Z,17.40
2019-03-22T07:40:49.180Z,19.52
2019-03-22T07:43:16.058Z,17.48
2019-03-22T07:45:42.978Z,16.30
2019-03-22T07:48:11.925Z,18.12
2019-03-22T07:50:40.830Z,15.70
2019-03-22T07:53:07.731Z,15.75
2019-03-22T07:55:36.994Z,17.23
2019-03-22T07:58:06.804Z,15.58
2019-03-22T08:00:33.953Z,17.95
2019-03-22T08:03:01.105Z,15.98
2019-03-22T08:05:28.942Z,16.65
2019-03-22T08:07:58.927Z,15.60
2019-03-22T08:10:27.659Z,17.57
2019-03-22T08:12:56.587Z,10.18
2019-03-22T08:15:30.976Z,16.17
2019-03-22T08:17:59.202Z,18.00
2019-03-22T08:20:32.438Z,15.50
2019-03-22T08:22:59.184Z,17.77
2019-03-22T08:25:26.264Z,16.70
2019-03-22T08:27:53.927Z,17.87
2019-03-22T08:30:24.429Z,17.40
2019-03-22T08:32:51.580Z,14.35
2019-03-22T08:35:20.132Z,14.78
2019-03-22T08:37:52.424Z,17.40
2019-03-22T08:40:16.017Z,16.12
2019-03-22T08:42:43.146Z,15.75
2019-03-22T08:45:11.498Z,18.65
2019-03-22T08:47:45.896Z,16.55
2019-03-22T08:50:15.119Z,16.93
2019-03-22T08:52:42.243Z,15.60
2019-03-22T08:55:10.021Z,14.95
2019-03-22T08:57:37.042Z,15.78
2019-03-22T09:00:09.170Z,14.93
2019-03-22T09:02:36.115Z,17.43
2019-03-22T09:05:05.779Z,15.40
2019-03-22T09:07:33.221Z,14.05
2019-03-22T09:10:02.135Z,14.25
2019-03-22T09:12:29.079Z,12.85
2019-03-22T09:14:55.932Z,12.68
2019-03-22T09:17:23.361Z,15.30
2019-03-22T09:19:51.252Z,14.63
2019-03-22T09:22:18.675Z,15.68
2019-03-22T09:24:47.678Z,13.88
2019-03-22T09:27:17.757Z,15.28
2019-03-22T09:29:47.434Z,14.55
2019-03-22T09:32:14.478Z,14.68
2019-03-22T09:34:42.531Z,15.93
2019-03-22T09:37:09.994Z,14.60
2019-03-22T09:39:39.643Z,16.70
2019-03-22T09:42:07.510Z,13.62
2019-03-22T09:44:43.412Z,16.32
2019-03-22T09:47:04.355Z,19.37
2019-03-22T09:49:31.229Z,14.00
2019-03-22T09:51:58.549Z,17.02
2019-03-22T09:54:25.830Z,14.73
2019-03-22T09:56:52.657Z,14.65
2019-03-22T09:59:19.937Z,17.62
2019-03-22T10:01:47.024Z,15.32
2019-03-22T10:04:18.777Z,13.85
2019-03-22T10:06:45.924Z,20.50
2019-03-22T10:09:12.808Z,33.58
2019-03-22T10:11:39.756Z,20.52
2019-03-22T10:14:06.696Z,21.42
2019-03-22T10:16:34.262Z,23.80
2019-03-22T10:19:04.088Z,23.02
2019-03-22T10:21:33.894Z,25.60
2019-03-22T10:24:01.561Z,23.20
2019-03-22T10:26:29.406Z,24.20
2019-03-22T10:29:06.797Z,23.67
2019-03-22T10:31:37.567Z,24.00
2019-03-22T10:34:25.777Z,22.45
2019-03-22T10:36:53.168Z,22.10
2019-03-22T10:39:20.804Z,25.45
2019-03-22T10:41:48.330Z,28.62
2019-03-22T10:44:15.608Z,23.98
2019-03-22T10:46:43.458Z,24.12
2019-03-22T10:49:12.685Z,22.50
2019-03-22T10:51:39.866Z,22.05
2019-03-22T10:54:07.174Z,23.75
2019-03-22T10:56:34.962Z,23.27
2019-03-22T10:59:01.904Z,22.07
2019-03-22T11:01:52.396Z,25.92
2019-03-22T11:04:17.039Z,25.75
2019-03-22T11:06:44.125Z,22.95
2019-03-22T11:09:11.390Z,24.63
2019-03-22T11:11:38.947Z,25.00
2019-03-22T11:14:06.796Z,24.37
2019-03-22T11:16:34.408Z,24.30
2019-03-22T11:19:02.151Z,26.52
2019-03-22T11:21:29.368Z,27.00
2019-03-22T11:24:00.637Z,25.23
2019-03-22T11:26:27.627Z,24.10
2019-03-22T11:28:54.911Z,28.57
2019-03-22T11:31:28.693Z,24.87
2019-03-22T11:33:53.213Z,28.35
2019-03-22T11:36:20.700Z,24.23
2019-03-22T11:38:47.907Z,23.18
2019-03-22T11:41:15.259Z,25.00
2019-03-22T11:43:42.342Z,27.60
2019-03-22T11:46:09.686Z,26.37
2019-03-22T11:48:36.876Z,27.75
2019-03-22T11:51:09.383Z,29.65
2019-03-22T11:53:38.778Z,32.63
2019-03-22T11:56:05.957Z,24.18
2019-03-22T11:58:33.320Z,27.40
2019-03-22T12:01:00.629Z,25.72
2019-03-22T12:03:27.454Z,27.80
2019-03-22T12:05:55.136Z,25.88
2019-03-22T12:08:22.634Z,26.45
2019-03-22T12:10:50.158Z,25.32
2019-03-22T12:13:16.966Z,27.40
2019-03-22T12:15:43.815Z,23.62
2019-03-22T12:18:10.750Z,27.15
2019-03-22T12:20:38.125Z,25.45
2019-03-22T12:23:05.297Z,23.40
2019-03-22T12:25:32.417Z,23.52
2019-03-22T12:27:59.828Z,26.42
2019-03-22T12:30:26.709Z,26.60
2019-03-22T12:32:53.815Z,25.30
2019-03-22T12:35:21.351Z,24.07
2019-03-22T12:37:48.632Z,24.02
2019-03-22T12:40:24.679Z,25.35
2019-03-22T12:42:53.185Z,21.85
2019-03-22T12:45:36.178Z,22.73
2019-03-22T12:50:40.643Z,22.67
2019-03-22T12:53:10.136Z,23.18
2019-03-22T12:55:37.855Z,24.10
2019-03-22T12:58:04.955Z,23.25
2019-03-22T13:00:32.534Z,24.52
2019-03-22T13:02:59.580Z,25.05
2019-03-22T13:05:26.887Z,23.55
2019-03-22T13:07:54.285Z,23.05
2019-03-22T13:10:26.230Z,23.95
2019-03-22T13:13:18.412Z,23.83
2019-03-22T13:15:47.551Z,22.45
2019-03-22T13:18:15.026Z,25.60
2019-03-22T13:20:45.029Z,25.43
2019-03-22T13:23:12.535Z,24.85
2019-03-22T13:25:40.105Z,22.87
2019-03-22T13:28:07.235Z,20.10
2019-03-22T13:30:37.415Z,19.60
2019-03-22T13:33:04.871Z,22.58
2019-03-22T13:35:40.154Z,21.95
2019-03-22T13:38:07.129Z,18.05
2019-03-22T13:40:34.308Z,22.50
2019-03-22T13:43:01.771Z,22.52
2019-03-22T13:45:28.890Z,22.30
2019-03-22T13:47:58.242Z,21.37
2019-03-22T13:50:25.393Z,18.00
2019-03-22T13:52:52.490Z,19.48
2019-03-22T13:55:19.869Z,18.65
2019-03-22T13:57:46.712Z,18.95
2019-03-22T14:00:17.727Z,16.85
2019-03-22T14:02:44.912Z,18.40
2019-03-22T14:05:12.382Z,21.82
2019-03-22T14:07:39.414Z,19.15
2019-03-22T14:10:10.260Z,24.87
2019-03-22T14:12:37.486Z,16.73
2019-03-22T14:15:06.744Z,18.48
2019-03-22T14:17:33.933Z,19.75
2019-03-22T14:20:10.465Z,21.65
2019-03-22T14:22:30.125Z,20.92
2019-03-22T14:24:57.453Z,20.08
2019-03-22T14:27:26.735Z,17.92
2019-03-22T14:29:54.068Z,19.35
2019-03-22T14:32:21.525Z,21.23
2019-03-22T14:34:50.035Z,30.75
2019-03-22T14:37:22.184Z,19.73
2019-03-22T14:39:49.714Z,21.82
2019-03-22T14:42:20.473Z,19.65
2019-03-22T14:44:48.388Z,21.27
2019-03-22T14:47:16.557Z,22.10
2019-03-22T14:49:45.554Z,18.80
2019-03-22T14:52:12.491Z,20.57
2019-03-22T14:54:39.276Z,22.40
2019-03-22T14:57:06.167Z,22.13
2019-03-22T14:59:33.151Z,18.25
2019-03-22T15:02:00.600Z,17.77
2019-03-22T15:04:27.393Z,20.90
2019-03-22T15:06:54.534Z,22.05
2019-03-22T15:09:23.487Z,19.35
2019-03-22T15:11:56.122Z,18.92
2019-03-22T15:14:24.959Z,24.10
2019-03-22T15:17:12.607Z,20.85
2019-03-22T15:19:47.603Z,19.77
2019-03-22T15:22:25.768Z,21.70
2019-03-22T15:24:52.633Z,17.50
2019-03-22T15:27:21.859Z,20.37
2019-03-22T15:29:53.899Z,21.07
2019-03-22T15:32:29.885Z,19.23
2019-03-22T15:35:18.169Z,21.27
2019-03-22T15:37:57.459Z,24.50
2019-03-22T15:40:24.480Z,21.17
2019-03-22T15:42:52.858Z,22.27
2019-03-22T15:45:19.824Z,20.45
2019-03-22T15:47:48.860Z,21.42
2019-03-22T15:50:18.189Z,18.70
2019-03-22T15:52:45.970Z,19.85
2019-03-22T15:55:13.414Z,19.65
2019-03-22T15:57:44.313Z,22.02
2019-03-22T16:00:15.925Z,20.52
2019-03-22T16:02:44.173Z,20.37
2019-03-22T16:05:18.739Z,20.48
2019-03-22T16:07:45.934Z,20.72
2019-03-22T16:10:12.900Z,21.82
2019-03-22T16:12:41.021Z,18.32
2019-03-22T16:15:13.258Z,18.30
2019-03-22T16:17:40.309Z,19.80
2019-03-22T16:20:11.482Z,23.50
2019-03-22T16:22:38.928Z,20.82
2019-03-22T16:25:09.048Z,18.10
2019-03-22T16:27:36.549Z,15.65
2019-03-22T16:30:08.481Z,20.60
2019-03-22T16:32:35.548Z,17.90
2019-03-22T16:35:06.926Z,18.55
2019-03-22T16:37:35.699Z,17.60
2019-03-22T16:40:04.807Z,16.52
2019-03-22T16:42:33.925Z,16.70
2019-03-22T16:45:03.200Z,17.27
2019-03-22T16:47:30.135Z,18.73
2019-03-22T16:49:56.992Z,17.37
2019-03-22T16:52:23.834Z,19.00
2019-03-22T16:54:52.551Z,17.67
2019-03-22T16:57:19.688Z,29.50
2019-03-22T16:59:46.886Z,19.60
2019-03-22T17:02:14.229Z,15.32
2019-03-22T17:04:41.779Z,14.20
2019-03-22T17:07:09.488Z,15.38
2019-03-22T17:09:36.816Z,14.73
2019-03-22T17:12:03.969Z,12.80
2019-03-22T17:14:32.597Z,15.75
2019-03-22T17:16:59.839Z,17.20
2019-03-22T17:19:27.061Z,18.20
2019-03-22T17:21:54.332Z,15.40
2019-03-22T17:24:21.591Z,13.35
2019-03-22T17:26:48.471Z,14.90
2019-03-22T17:29:15.975Z,11.65
2019-03-22T17:31:43.188Z,14.60
2019-03-22T17:34:14.140Z,10.55
2019-03-22T17:36:39.624Z,14.03
2019-03-22T17:39:06.641Z,16.55
2019-03-22T17:41:33.986Z,18.23
2019-03-22T17:44:01.348Z,21.93
2019-03-22T17:46:28.451Z,25.35
2019-03-22T17:48:56.264Z,28.70
2019-03-22T17:51:23.442Z,26.87
2019-03-22T17:53:50.551Z,29.60
2019-03-22T17:56:17.726Z,23.90
2019-03-22T17:58:44.759Z,20.35
2019-03-22T18:01:12.669Z,18.87
2019-03-22T18:03:42.586Z,16.60
2019-03-22T18:06:09.797Z,12.95
2019-03-22T18:08:37.360Z,11.73
2019-03-22T18:11:04.716Z,14.55
2019-03-22T18:13:31.925Z,12.60
2019-03-22T18:15:58.842Z,11.03
2019-03-22T18:18:26.378Z,10.38
2019-03-22T18:20:53.590Z,13.08
2019-03-22T18:23:22.174Z,10.35
2019-03-22T18:25:49.436Z,11.08
2019-03-22T18:28:19.781Z,13.05
2019-03-22T18:30:46.613Z,14.33
2019-03-22T18:33:13.983Z,12.03
2019-03-22T18:35:41.612Z,10.13
2019-03-22T18:38:09.030Z,9.58
2019-03-22T18:40:38.185Z,10.05
2019-03-22T18:43:06.777Z,10.20
2019-03-22T18:45:33.700Z,13.13
2019-03-22T18:48:00.818Z,10.35
2019-03-22T18:50:27.839Z,14.93
2019-03-22T18:52:55.102Z,10.90
2019-03-22T18:55:22.583Z,11.08
2019-03-22T18:57:49.482Z,9.53
2019-03-22T19:00:17.487Z,13.60
2019-03-22T19:02:44.387Z,17.32
2019-03-22T19:05:12.438Z,11.80
2019-03-22T19:07:39.305Z,15.00
2019-03-22T19:10:11.766Z,12.10
2019-03-22T19:12:38.870Z,12.73
2019-03-22T19:15:09.731Z,12.53
2019-03-22T19:17:37.249Z,12.30
2019-03-22T19:20:07.920Z,13.20
2019-03-22T19:22:34.769Z,10.80
2019-03-22T19:25:02.536Z,12.33
2019-03-22T19:27:29.718Z,17.52
2019-03-22T19:29:57.142Z,14.95
2019-03-22T19:32:24.215Z,12.18
2019-03-22T19:34:54.651Z,10.63
2019-03-22T19:37:19.799Z,11.40
2019-03-22T19:39:46.743Z,11.05
2019-03-22T19:42:13.639Z,10.75
2019-03-22T19:44:41.015Z,11.83
2019-03-22T19:47:08.806Z,9.10
2019-03-22T19:49:36.022Z,10.32
2019-03-22T19:52:03.650Z,11.35
2019-03-22T19:54:30.565Z,14.33
2019-03-22T19:56:57.736Z,13.58
2019-03-22T19:59:24.523Z,18.05
2019-03-22T20:01:51.766Z,13.32
2019-03-22T20:04:18.543Z,11.60
2019-03-22T20:06:45.310Z,11.93
2019-03-22T20:09:12.480Z,14.00
2019-03-22T20:11:39.397Z,17.77
2019-03-22T20:14:06.478Z,14.07
2019-03-22T20:16:33.431Z,15.70
2019-03-22T20:19:00.567Z,16.73
2019-03-22T20:21:27.482Z,18.90
2019-03-22T20:23:54.414Z,22.45
2019-03-22T20:26:22.175Z,19.42
2019-03-22T20:28:48.924Z,19.50
2019-03-22T20:31:15.897Z,19.67
2019-03-22T20:33:43.133Z,17.82
2019-03-22T20:36:10.917Z,14.58
2019-03-22T20:38:37.858Z,18.05
2019-03-22T20:41:04.992Z,15.32
2019-03-22T20:43:33.754Z,16.12
2019-03-22T20:46:02.205Z,17.27
2019-03-22T20:48:29.093Z,15.15
2019-03-22T20:50:56.543Z,13.60
2019-03-22T20:53:26.128Z,15.10
2019-03-22T20:55:53.214Z,13.35
2019-03-22T20:58:20.572Z,13.58
2019-03-22T21:00:47.548Z,15.30
2019-03-22T21:03:14.488Z,17.80
2019-03-22T21:05:41.685Z,16.80
2019-03-22T21:08:08.472Z,15.18
2019-03-22T21:10:35.309Z,15.38
2019-03-22T21:13:02.375Z,14.73
2019-03-22T21:15:30.280Z,16.30
2019-03-22T21:18:00.511Z,14.93
2019-03-22T21:20:32.159Z,16.32
2019-03-22T21:23:03.327Z,15.35
2019-03-22T21:25:32.338Z,17.42
2019-03-22T21:28:03.909Z,12.95
2019-03-22T21:30:31.614Z,15.80
2019-03-22T21:33:00.569Z,16.42
2019-03-22T21:35:36.880Z,12.43
2019-03-22T21:38:09.987Z,15.55
2019-03-22T21:40:29.515Z,13.10
2019-03-22T21:42:57.315Z,16.37
2019-03-22T21:45:25.990Z,15.78
2019-03-22T21:47:53.181Z,17.70
2019-03-22T21:50:20.270Z,14.70
2019-03-22T21:52:47.425Z,17.95
2019-03-22T21:55:14.210Z,18.00
2019-03-22T21:57:41.083Z,14.33
2019-03-22T22:00:13.467Z,14.78
2019-03-22T22:02:40.664Z,13.15
2019-03-22T22:05:07.803Z,16.87
2019-03-22T22:07:34.593Z,19.57
2019-03-22T22:10:05.099Z,16.27
2019-03-22T22:12:32.275Z,17.15
2019-03-22T22:15:36.207Z,14.28
2019-03-22T22:18:09.608Z,14.63
2019-03-22T22:20:37.779Z,15.03
2019-03-22T22:23:04.679Z,13.68
2019-03-22T22:25:31.845Z,15.15
2019-03-22T22:27:58.867Z,15.43
2019-03-22T22:30:25.663Z,18.55
2019-03-22T22:32:52.602Z,16.05
2019-03-22T22:35:19.824Z,13.95
2019-03-22T22:37:46.844Z,13.58
2019-03-22T22:40:16.649Z,13.80
2019-03-22T22:42:44.215Z,16.70
2019-03-22T22:45:12.419Z,15.20
2019-03-22T22:47:41.878Z,13.15
2019-03-22T22:50:10.891Z,14.20
2019-03-22T22:52:38.170Z,17.65
2019-03-22T22:55:08.171Z,13.40
2019-03-22T22:57:37.438Z,16.62
2019-03-22T23:00:13.250Z,14.03
2019-03-22T23:02:40.254Z,11.95
2019-03-22T23:05:07.430Z,14.35
2019-03-22T23:07:35.714Z,15.35
2019-03-22T23:10:04.838Z,13.60
2019-03-22T23:12:32.242Z,17.02
2019-03-22T23:14:59.160Z,19.87
2019-03-22T23:17:27.407Z,17.02
2019-03-22T23:19:54.344Z,14.55
2019-03-22T23:22:22.351Z,13.62
2019-03-22T23:24:49.333Z,17.60
2019-03-22T23:27:16.377Z,16.23
2019-03-22T23:29:45.855Z,15.98
2019-03-22T23:32:12.861Z,17.23
2019-03-22T23:34:39.908Z,13.22
2019-03-22T23:37:07.330Z,16.20
2019-03-22T23:39:34.591Z,15.28
2019-03-22T23:42:01.364Z,14.83
2019-03-22T23:44:28.232Z,17.32
2019-03-22T23:46:55.429Z,16.65
2019-03-22T23:49:22.361Z,14.53
2019-03-22T23:51:49.219Z,19.02
2019-03-22T23:54:16.355Z,15.95
2019-03-22T23:56:43.674Z,19.40
2019-03-22T23:59:10.947Z,17.67
